sensor_id;sensor_type;location;lat;lon;timestamp;temperature;humidity
15199;DHT22;7700;48.654;9.070;2024-03-07T00:00:42;6.00;99.90
15199;DHT22;7700;48.654;9.070;2024-03-07T00:03:08;6.00;99.90
15199;DHT22;7700;48.654;9.070;2024-03-07T00:05:34;6.00;99.90
15199;DHT22;7700;48.654;9.070;2024-03-07T00:07:59;6.00;99.90
15199;DHT22;7700;48.654;9.070;2024-03-07T00:10:25;6.00;99.90
15199;DHT22;7700;48.654;9.070;2024-03-07T00:12:50;6.00;99.90
15199;DHT22;7700;48.654;9.070;2024-03-07T00:15:16;6.00;99.90
15199;DHT22;7700;48.654;9.070;2024-03-07T00:17:42;6.00;99.90
15199;DHT22;7700;48.654;9.070;2024-03-07T00:20:08;6.00;99.90
15199;DHT22;7700;48.654;9.070;2024-03-07T00:22:38;6.00;99.90
15199;DHT22;7700;48.654;9.070;2024-03-07T00:25:04;6.00;99.90
15199;DHT22;7700;48.654;9.070;2024-03-07T00:27:34;6.00;99.90
15199;DHT22;7700;48.654;9.070;2024-03-07T00:30:01;5.90;99.90
15199;DHT22;7700;48.654;9.070;2024-03-07T00:32:26;5.90;99.90
15199;DHT22;7700;48.654;9.070;2024-03-07T00:34:55;6.00;99.90
15199;DHT22;7700;48.654;9.070;2024-03-07T00:37:22;5.90;99.90
15199;DHT22;7700;48.654;9.070;2024-03-07T00:39:49;5.90;99.90
15199;DHT22;7700;48.654;9.070;2024-03-07T00:42:14;5.90;99.90
15199;DHT22;7700;48.654;9.070;2024-03-07T00:44:40;5.80;99.90
15199;DHT22;7700;48.654;9.070;2024-03-07T00:47:06;5.80;99.90
15199;DHT22;7700;48.654;9.070;2024-03-07T00:49:31;5.80;99.90
15199;DHT22;7700;48.654;9.070;2024-03-07T00:52:00;5.70;99.90
15199;DHT22;7700;48.654;9.070;2024-03-07T00:54:26;5.70;99.90
15199;DHT22;7700;48.654;9.070;2024-03-07T00:56:51;5.70;99.90
15199;DHT22;7700;48.654;9.070;2024-03-07T00:59:17;5.60;99.90
15199;DHT22;7700;48.654;9.070;2024-03-07T01:01:43;5.60;99.90
15199;DHT22;7700;48.654;9.070;2024-03-07T01:04:08;5.50;99.90
15199;DHT22;7700;48.654;9.070;2024-03-07T01:06:35;5.50;99.90
15199;DHT22;7700;48.654;9.070;2024-03-07T01:09:04;5.50;99.90
15199;DHT22;7700;48.654;9.070;2024-03-07T01:11:30;5.40;99.90
15199;DHT22;7700;48.654;9.070;2024-03-07T01:13:55;5.40;99.90
15199;DHT22;7700;48.654;9.070;2024-03-07T01:16:22;5.30;99.90
15199;DHT22;7700;48.654;9.070;2024-03-07T01:18:48;5.30;99.90
15199;DHT22;7700;48.654;9.070;2024-03-07T01:21:14;5.30;99.90
15199;DHT22;7700;48.654;9.070;2024-03-07T01:23:40;5.20;99.90
15199;DHT22;7700;48.654;9.070;2024-03-07T01:26:05;5.20;99.90
15199;DHT22;7700;48.654;9.070;2024-03-07T01:28:31;5.20;99.90
15199;DHT22;7700;48.654;9.070;2024-03-07T01:30:57;5.10;99.90
15199;DHT22;7700;48.654;9.070;2024-03-07T01:33:23;5.10;99.90
15199;DHT22;7700;48.654;9.070;2024-03-07T01:35:49;5.10;99.90
15199;DHT22;7700;48.654;9.070;2024-03-07T01:38:15;5.10;99.90
15199;DHT22;7700;48.654;9.070;2024-03-07T01:40:41;5.00;99.90
15199;DHT22;7700;48.654;9.070;2024-03-07T01:43:08;4.90;99.90
15199;DHT22;7700;48.654;9.070;2024-03-07T01:45:34;4.90;99.90
15199;DHT22;7700;48.654;9.070;2024-03-07T01:48:03;4.90;99.90
15199;DHT22;7700;48.654;9.070;2024-03-07T01:50:29;4.80;99.90
15199;DHT22;7700;48.654;9.070;2024-03-07T01:52:55;4.70;99.90
15199;DHT22;7700;48.654;9.070;2024-03-07T01:55:22;4.70;99.90
15199;DHT22;7700;48.654;9.070;2024-03-07T01:57:48;4.60;99.90
15199;DHT22;7700;48.654;9.070;2024-03-07T02:00:13;4.60;99.90
15199;DHT22;7700;48.654;9.070;2024-03-07T02:02:39;4.60;99.90
15199;DHT22;7700;48.654;9.070;2024-03-07T02:05:05;4.50;99.90
15199;DHT22;7700;48.654;9.070;2024-03-07T02:07:31;4.50;99.90
15199;DHT22;7700;48.654;9.070;2024-03-07T02:10:02;4.40;99.90
15199;DHT22;7700;48.654;9.070;2024-03-07T02:12:29;4.40;99.90
15199;DHT22;7700;48.654;9.070;2024-03-07T02:14:56;4.30;99.90
15199;DHT22;7700;48.654;9.070;2024-03-07T02:17:23;4.30;99.90
15199;DHT22;7700;48.654;9.070;2024-03-07T02:19:49;4.20;99.90
15199;DHT22;7700;48.654;9.070;2024-03-07T02:22:14;4.20;99.90
15199;DHT22;7700;48.654;9.070;2024-03-07T02:24:40;4.10;99.90
15199;DHT22;7700;48.654;9.070;2024-03-07T02:27:05;4.10;99.90
15199;DHT22;7700;48.654;9.070;2024-03-07T02:29:31;4.00;99.90
15199;DHT22;7700;48.654;9.070;2024-03-07T02:31:56;4.00;99.90
15199;DHT22;7700;48.654;9.070;2024-03-07T02:34:22;3.90;99.90
15199;DHT22;7700;48.654;9.070;2024-03-07T02:36:47;3.90;99.90
15199;DHT22;7700;48.654;9.070;2024-03-07T02:39:13;3.80;99.90
15199;DHT22;7700;48.654;9.070;2024-03-07T02:41:38;3.80;99.90
15199;DHT22;7700;48.654;9.070;2024-03-07T02:44:04;3.90;99.90
15199;DHT22;7700;48.654;9.070;2024-03-07T02:46:29;3.80;99.90
15199;DHT22;7700;48.654;9.070;2024-03-07T02:48:58;3.80;99.90
15199;DHT22;7700;48.654;9.070;2024-03-07T02:51:23;3.80;99.90
15199;DHT22;7700;48.654;9.070;2024-03-07T02:53:49;3.80;99.90
15199;DHT22;7700;48.654;9.070;2024-03-07T02:56:15;3.80;99.90
15199;DHT22;7700;48.654;9.070;2024-03-07T02:58:40;3.80;99.90
15199;DHT22;7700;48.654;9.070;2024-03-07T03:01:06;3.80;99.90
15199;DHT22;7700;48.654;9.070;2024-03-07T03:03:32;3.70;99.90
15199;DHT22;7700;48.654;9.070;2024-03-07T03:05:58;3.70;99.90
15199;DHT22;7700;48.654;9.070;2024-03-07T03:08:24;3.70;99.90
15199;DHT22;7700;48.654;9.070;2024-03-07T03:10:50;3.60;99.90
15199;DHT22;7700;48.654;9.070;2024-03-07T03:13:18;3.60;99.90
15199;DHT22;7700;48.654;9.070;2024-03-07T03:15:44;3.60;99.90
15199;DHT22;7700;48.654;9.070;2024-03-07T03:18:09;3.50;99.90
15199;DHT22;7700;48.654;9.070;2024-03-07T03:20:35;3.50;99.90
15199;DHT22;7700;48.654;9.070;2024-03-07T03:23:05;3.40;99.90
15199;DHT22;7700;48.654;9.070;2024-03-07T03:25:39;3.40;99.90
15199;DHT22;7700;48.654;9.070;2024-03-07T03:28:05;3.30;99.90
15199;DHT22;7700;48.654;9.070;2024-03-07T03:30:32;3.30;99.90
15199;DHT22;7700;48.654;9.070;2024-03-07T03:32:58;3.30;99.90
15199;DHT22;7700;48.654;9.070;2024-03-07T03:35:24;3.20;99.90
15199;DHT22;7700;48.654;9.070;2024-03-07T03:37:49;3.20;99.90
15199;DHT22;7700;48.654;9.070;2024-03-07T03:40:15;3.10;99.90
15199;DHT22;7700;48.654;9.070;2024-03-07T03:42:42;3.20;99.90
15199;DHT22;7700;48.654;9.070;2024-03-07T03:45:09;3.20;99.90
15199;DHT22;7700;48.654;9.070;2024-03-07T03:47:35;3.10;99.90
15199;DHT22;7700;48.654;9.070;2024-03-07T03:50:05;3.10;99.90
15199;DHT22;7700;48.654;9.070;2024-03-07T03:52:31;3.00;99.90
15199;DHT22;7700;48.654;9.070;2024-03-07T03:54:58;3.00;99.90
15199;DHT22;7700;48.654;9.070;2024-03-07T03:57:28;3.00;99.90
15199;DHT22;7700;48.654;9.070;2024-03-07T03:59:57;3.00;99.90
15199;DHT22;7700;48.654;9.070;2024-03-07T04:02:23;2.90;99.90
15199;DHT22;7700;48.654;9.070;2024-03-07T04:04:52;2.90;99.90
15199;DHT22;7700;48.654;9.070;2024-03-07T04:07:18;2.90;99.90
15199;DHT22;7700;48.654;9.070;2024-03-07T04:09:45;2.90;99.90
15199;DHT22;7700;48.654;9.070;2024-03-07T04:12:11;2.80;99.90
15199;DHT22;7700;48.654;9.070;2024-03-07T04:14:40;2.80;99.90
15199;DHT22;7700;48.654;9.070;2024-03-07T04:17:09;2.70;99.90
15199;DHT22;7700;48.654;9.070;2024-03-07T04:19:38;2.70;99.90
15199;DHT22;7700;48.654;9.070;2024-03-07T04:22:04;2.70;99.90
15199;DHT22;7700;48.654;9.070;2024-03-07T04:24:31;2.70;99.90
15199;DHT22;7700;48.654;9.070;2024-03-07T04:26:58;2.70;99.90
15199;DHT22;7700;48.654;9.070;2024-03-07T04:29:24;2.70;99.90
15199;DHT22;7700;48.654;9.070;2024-03-07T04:31:49;2.70;99.90
15199;DHT22;7700;48.654;9.070;2024-03-07T04:34:15;2.60;99.90
15199;DHT22;7700;48.654;9.070;2024-03-07T04:36:41;2.60;99.90
15199;DHT22;7700;48.654;9.070;2024-03-07T04:39:07;2.60;99.90
15199;DHT22;7700;48.654;9.070;2024-03-07T04:41:40;2.60;99.90
15199;DHT22;7700;48.654;9.070;2024-03-07T04:44:05;2.60;99.90
15199;DHT22;7700;48.654;9.070;2024-03-07T04:46:31;2.60;99.90
15199;DHT22;7700;48.654;9.070;2024-03-07T04:48:56;2.60;99.90
15199;DHT22;7700;48.654;9.070;2024-03-07T04:51:22;2.50;99.90
15199;DHT22;7700;48.654;9.070;2024-03-07T04:53:48;2.40;99.90
15199;DHT22;7700;48.654;9.070;2024-03-07T04:56:13;2.30;99.90
15199;DHT22;7700;48.654;9.070;2024-03-07T04:58:39;2.30;99.90
15199;DHT22;7700;48.654;9.070;2024-03-07T05:01:05;2.20;99.90
15199;DHT22;7700;48.654;9.070;2024-03-07T05:03:30;2.30;99.90
15199;DHT22;7700;48.654;9.070;2024-03-07T05:05:57;2.30;99.90
15199;DHT22;7700;48.654;9.070;2024-03-07T05:08:22;2.30;99.90
15199;DHT22;7700;48.654;9.070;2024-03-07T05:10:48;2.30;99.90
15199;DHT22;7700;48.654;9.070;2024-03-07T05:13:13;2.30;99.90
15199;DHT22;7700;48.654;9.070;2024-03-07T05:15:39;2.30;99.90
15199;DHT22;7700;48.654;9.070;2024-03-07T05:18:04;2.30;99.90
15199;DHT22;7700;48.654;9.070;2024-03-07T05:20:32;2.30;99.90
15199;DHT22;7700;48.654;9.070;2024-03-07T05:22:57;2.30;99.90
15199;DHT22;7700;48.654;9.070;2024-03-07T05:25:25;2.20;99.90
15199;DHT22;7700;48.654;9.070;2024-03-07T05:27:50;2.20;99.90
15199;DHT22;7700;48.654;9.070;2024-03-07T05:30:16;2.20;99.90
15199;DHT22;7700;48.654;9.070;2024-03-07T05:32:42;2.30;99.90
15199;DHT22;7700;48.654;9.070;2024-03-07T05:35:08;2.30;99.90
15199;DHT22;7700;48.654;9.070;2024-03-07T05:37:33;2.30;99.90
15199;DHT22;7700;48.654;9.070;2024-03-07T05:39:59;2.30;99.90
15199;DHT22;7700;48.654;9.070;2024-03-07T05:42:25;2.30;99.90
15199;DHT22;7700;48.654;9.070;2024-03-07T05:44:51;2.20;99.90
15199;DHT22;7700;48.654;9.070;2024-03-07T05:47:18;2.20;99.90
15199;DHT22;7700;48.654;9.070;2024-03-07T05:49:44;2.20;99.90
15199;DHT22;7700;48.654;9.070;2024-03-07T05:52:10;2.30;99.90
15199;DHT22;7700;48.654;9.070;2024-03-07T05:54:36;2.20;99.90
15199;DHT22;7700;48.654;9.070;2024-03-07T05:57:02;2.20;99.90
15199;DHT22;7700;48.654;9.070;2024-03-07T05:59:28;2.20;99.90
15199;DHT22;7700;48.654;9.070;2024-03-07T06:01:54;2.20;99.90
15199;DHT22;7700;48.654;9.070;2024-03-07T06:04:20;2.20;99.90
15199;DHT22;7700;48.654;9.070;2024-03-07T06:06:46;2.20;99.90
15199;DHT22;7700;48.654;9.070;2024-03-07T06:09:13;2.20;99.90
15199;DHT22;7700;48.654;9.070;2024-03-07T06:11:39;2.10;99.90
15199;DHT22;7700;48.654;9.070;2024-03-07T06:14:08;2.20;99.90
15199;DHT22;7700;48.654;9.070;2024-03-07T06:16:37;2.20;99.90
15199;DHT22;7700;48.654;9.070;2024-03-07T06:19:04;2.20;99.90
15199;DHT22;7700;48.654;9.070;2024-03-07T06:21:33;2.10;99.90
15199;DHT22;7700;48.654;9.070;2024-03-07T06:24:00;2.10;99.90
15199;DHT22;7700;48.654;9.070;2024-03-07T06:26:31;2.10;99.90
15199;DHT22;7700;48.654;9.070;2024-03-07T06:29:06;2.20;99.90
15199;DHT22;7700;48.654;9.070;2024-03-07T06:31:32;2.20;99.90
15199;DHT22;7700;48.654;9.070;2024-03-07T06:33:58;2.20;99.90
15199;DHT22;7700;48.654;9.070;2024-03-07T06:36:24;2.30;99.90
15199;DHT22;7700;48.654;9.070;2024-03-07T06:38:50;2.30;99.90
15199;DHT22;7700;48.654;9.070;2024-03-07T06:41:16;2.40;99.90
15199;DHT22;7700;48.654;9.070;2024-03-07T06:43:43;2.50;99.90
15199;DHT22;7700;48.654;9.070;2024-03-07T06:46:10;2.60;99.90
15199;DHT22;7700;48.654;9.070;2024-03-07T06:48:35;2.60;99.90
15199;DHT22;7700;48.654;9.070;2024-03-07T06:51:01;2.70;99.90
15199;DHT22;7700;48.654;9.070;2024-03-07T06:53:27;2.70;99.90
15199;DHT22;7700;48.654;9.070;2024-03-07T06:55:54;2.80;99.90
15199;DHT22;7700;48.654;9.070;2024-03-07T06:58:20;2.90;99.90
15199;DHT22;7700;48.654;9.070;2024-03-07T07:00:46;3.00;99.90
15199;DHT22;7700;48.654;9.070;2024-03-07T07:03:11;3.00;99.90
15199;DHT22;7700;48.654;9.070;2024-03-07T07:05:39;3.00;99.90
15199;DHT22;7700;48.654;9.070;2024-03-07T07:08:06;3.10;99.90
15199;DHT22;7700;48.654;9.070;2024-03-07T07:10:32;3.10;99.90
15199;DHT22;7700;48.654;9.070;2024-03-07T07:12:57;3.10;99.90
15199;DHT22;7700;48.654;9.070;2024-03-07T07:15:23;3.10;99.90
15199;DHT22;7700;48.654;9.070;2024-03-07T07:17:49;3.10;99.90
15199;DHT22;7700;48.654;9.070;2024-03-07T07:20:16;3.10;99.90
15199;DHT22;7700;48.654;9.070;2024-03-07T07:22:46;3.00;99.90
15199;DHT22;7700;48.654;9.070;2024-03-07T07:25:13;3.00;99.90
15199;DHT22;7700;48.654;9.070;2024-03-07T07:27:50;3.00;99.90
15199;DHT22;7700;48.654;9.070;2024-03-07T07:30:18;3.00;99.90
15199;DHT22;7700;48.654;9.070;2024-03-07T07:32:45;3.00;99.90
15199;DHT22;7700;48.654;9.070;2024-03-07T07:35:12;3.00;99.90
15199;DHT22;7700;48.654;9.070;2024-03-07T07:37:49;3.00;99.90
15199;DHT22;7700;48.654;9.070;2024-03-07T07:40:18;3.10;99.90
15199;DHT22;7700;48.654;9.070;2024-03-07T07:42:45;3.20;99.90
15199;DHT22;7700;48.654;9.070;2024-03-07T07:45:13;3.40;99.90
15199;DHT22;7700;48.654;9.070;2024-03-07T07:47:49;3.50;99.90
15199;DHT22;7700;48.654;9.070;2024-03-07T07:50:17;3.60;99.90
15199;DHT22;7700;48.654;9.070;2024-03-07T07:52:44;3.60;99.90
15199;DHT22;7700;48.654;9.070;2024-03-07T07:55:10;3.70;99.90
15199;DHT22;7700;48.654;9.070;2024-03-07T07:57:43;3.80;99.90
15199;DHT22;7700;48.654;9.070;2024-03-07T08:00:14;3.70;99.90
15199;DHT22;7700;48.654;9.070;2024-03-07T08:02:51;3.80;99.90
15199;DHT22;7700;48.654;9.070;2024-03-07T08:05:24;3.90;99.90
15199;DHT22;7700;48.654;9.070;2024-03-07T08:07:51;4.00;99.90
15199;DHT22;7700;48.654;9.070;2024-03-07T08:10:18;4.10;99.90
15199;DHT22;7700;48.654;9.070;2024-03-07T08:12:44;4.20;99.90
15199;DHT22;7700;48.654;9.070;2024-03-07T08:15:11;4.20;99.90
15199;DHT22;7700;48.654;9.070;2024-03-07T08:17:43;4.30;99.90
15199;DHT22;7700;48.654;9.070;2024-03-07T08:20:16;4.60;99.90
15199;DHT22;7700;48.654;9.070;2024-03-07T08:22:44;4.60;99.90
15199;DHT22;7700;48.654;9.070;2024-03-07T08:25:11;4.70;99.90
15199;DHT22;7700;48.654;9.070;2024-03-07T08:27:38;4.70;99.90
15199;DHT22;7700;48.654;9.070;2024-03-07T08:30:05;4.60;99.90
15199;DHT22;7700;48.654;9.070;2024-03-07T08:32:41;4.40;99.90
15199;DHT22;7700;48.654;9.070;2024-03-07T08:35:08;4.30;99.90
15199;DHT22;7700;48.654;9.070;2024-03-07T08:37:44;4.20;99.90
15199;DHT22;7700;48.654;9.070;2024-03-07T08:40:10;4.20;99.90
15199;DHT22;7700;48.654;9.070;2024-03-07T08:42:38;4.10;99.90
15199;DHT22;7700;48.654;9.070;2024-03-07T08:45:05;4.20;99.90
15199;DHT22;7700;48.654;9.070;2024-03-07T08:47:32;4.30;99.90
15199;DHT22;7700;48.654;9.070;2024-03-07T08:49:59;4.30;99.90
15199;DHT22;7700;48.654;9.070;2024-03-07T08:52:25;4.30;99.90
15199;DHT22;7700;48.654;9.070;2024-03-07T08:54:50;4.30;99.90
15199;DHT22;7700;48.654;9.070;2024-03-07T08:57:16;4.30;99.90
15199;DHT22;7700;48.654;9.070;2024-03-07T08:59:45;4.30;99.90
15199;DHT22;7700;48.654;9.070;2024-03-07T09:02:10;4.30;99.90
15199;DHT22;7700;48.654;9.070;2024-03-07T09:04:39;4.30;99.90
15199;DHT22;7700;48.654;9.070;2024-03-07T09:07:06;4.30;99.90
15199;DHT22;7700;48.654;9.070;2024-03-07T09:09:32;4.40;99.90
15199;DHT22;7700;48.654;9.070;2024-03-07T09:11:58;4.40;99.90
15199;DHT22;7700;48.654;9.070;2024-03-07T09:14:24;4.50;99.90
15199;DHT22;7700;48.654;9.070;2024-03-07T09:16:50;4.50;99.90
15199;DHT22;7700;48.654;9.070;2024-03-07T09:19:17;4.60;99.90
15199;DHT22;7700;48.654;9.070;2024-03-07T09:21:46;4.60;99.90
15199;DHT22;7700;48.654;9.070;2024-03-07T09:24:12;4.50;99.90
15199;DHT22;7700;48.654;9.070;2024-03-07T09:26:37;4.60;99.90
15199;DHT22;7700;48.654;9.070;2024-03-07T09:29:03;4.60;99.90
15199;DHT22;7700;48.654;9.070;2024-03-07T09:31:34;4.60;99.90
15199;DHT22;7700;48.654;9.070;2024-03-07T09:34:00;4.60;99.90
15199;DHT22;7700;48.654;9.070;2024-03-07T09:36:25;4.60;99.90
15199;DHT22;7700;48.654;9.070;2024-03-07T09:38:51;4.70;99.90
15199;DHT22;7700;48.654;9.070;2024-03-07T09:41:18;4.80;99.90
15199;DHT22;7700;48.654;9.070;2024-03-07T09:43:48;4.80;99.90
15199;DHT22;7700;48.654;9.070;2024-03-07T09:46:16;4.70;99.90
15199;DHT22;7700;48.654;9.070;2024-03-07T09:48:43;4.70;99.90
15199;DHT22;7700;48.654;9.070;2024-03-07T09:51:10;4.70;99.90
15199;DHT22;7700;48.654;9.070;2024-03-07T09:53:37;4.70;99.90
15199;DHT22;7700;48.654;9.070;2024-03-07T09:56:04;4.70;99.90
15199;DHT22;7700;48.654;9.070;2024-03-07T09:58:32;4.70;99.90
15199;DHT22;7700;48.654;9.070;2024-03-07T10:03:34;4.80;99.90
15199;DHT22;7700;48.654;9.070;2024-03-07T10:06:00;4.90;99.90
15199;DHT22;7700;48.654;9.070;2024-03-07T10:08:27;5.00;99.90
15199;DHT22;7700;48.654;9.070;2024-03-07T10:10:54;5.10;99.90
15199;DHT22;7700;48.654;9.070;2024-03-07T10:13:21;5.20;99.90
15199;DHT22;7700;48.654;9.070;2024-03-07T10:15:48;5.40;99.90
15199;DHT22;7700;48.654;9.070;2024-03-07T10:18:14;5.40;99.90
15199;DHT22;7700;48.654;9.070;2024-03-07T10:20:42;5.50;99.90
15199;DHT22;7700;48.654;9.070;2024-03-07T10:23:08;5.50;99.90
15199;DHT22;7700;48.654;9.070;2024-03-07T10:25:33;5.60;99.90
15199;DHT22;7700;48.654;9.070;2024-03-07T10:27:59;5.60;99.90
15199;DHT22;7700;48.654;9.070;2024-03-07T10:30:26;5.60;99.90
15199;DHT22;7700;48.654;9.070;2024-03-07T10:32:57;5.60;99.90
15199;DHT22;7700;48.654;9.070;2024-03-07T10:35:23;5.60;99.90
15199;DHT22;7700;48.654;9.070;2024-03-07T10:37:55;5.60;99.90
15199;DHT22;7700;48.654;9.070;2024-03-07T10:40:24;5.70;99.90
15199;DHT22;7700;48.654;9.070;2024-03-07T10:42:56;5.80;99.90
15199;DHT22;7700;48.654;9.070;2024-03-07T10:45:22;5.90;99.90
15199;DHT22;7700;48.654;9.070;2024-03-07T10:47:56;5.80;99.90
15199;DHT22;7700;48.654;9.070;2024-03-07T10:53:19;5.90;99.90
15199;DHT22;7700;48.654;9.070;2024-03-07T10:58:58;6.10;99.90
15199;DHT22;7700;48.654;9.070;2024-03-07T11:01:30;6.00;99.90
15199;DHT22;7700;48.654;9.070;2024-03-07T11:03:58;6.10;99.90
15199;DHT22;7700;48.654;9.070;2024-03-07T11:06:25;6.20;99.90
15199;DHT22;7700;48.654;9.070;2024-03-07T11:08:52;6.30;99.90
15199;DHT22;7700;48.654;9.070;2024-03-07T11:11:18;6.10;99.90
15199;DHT22;7700;48.654;9.070;2024-03-07T11:13:45;6.00;99.90
15199;DHT22;7700;48.654;9.070;2024-03-07T11:16:12;6.00;99.90
15199;DHT22;7700;48.654;9.070;2024-03-07T11:18:38;6.00;99.90
15199;DHT22;7700;48.654;9.070;2024-03-07T11:21:05;6.00;99.90
15199;DHT22;7700;48.654;9.070;2024-03-07T11:23:33;6.10;99.90
15199;DHT22;7700;48.654;9.070;2024-03-07T11:26:07;6.20;99.90
15199;DHT22;7700;48.654;9.070;2024-03-07T11:28:37;6.30;99.90
15199;DHT22;7700;48.654;9.070;2024-03-07T11:31:10;6.30;99.90
15199;DHT22;7700;48.654;9.070;2024-03-07T11:33:38;6.40;99.90
15199;DHT22;7700;48.654;9.070;2024-03-07T11:36:08;6.50;99.90
15199;DHT22;7700;48.654;9.070;2024-03-07T11:38:33;6.50;99.90
15199;DHT22;7700;48.654;9.070;2024-03-07T11:41:00;6.30;99.90
15199;DHT22;7700;48.654;9.070;2024-03-07T11:43:31;6.40;99.90
15199;DHT22;7700;48.654;9.070;2024-03-07T11:45:57;6.40;99.90
15199;DHT22;7700;48.654;9.070;2024-03-07T11:48:23;6.50;99.90
15199;DHT22;7700;48.654;9.070;2024-03-07T11:50:49;6.60;99.90
15199;DHT22;7700;48.654;9.070;2024-03-07T11:53:15;6.60;99.90
15199;DHT22;7700;48.654;9.070;2024-03-07T11:55:41;6.50;99.90
15199;DHT22;7700;48.654;9.070;2024-03-07T12:00:39;6.70;99.90
15199;DHT22;7700;48.654;9.070;2024-03-07T12:03:08;6.70;99.90
15199;DHT22;7700;48.654;9.070;2024-03-07T12:05:39;6.60;99.90
15199;DHT22;7700;48.654;9.070;2024-03-07T12:08:04;6.60;99.90
15199;DHT22;7700;48.654;9.070;2024-03-07T12:10:31;6.70;99.90
15199;DHT22;7700;48.654;9.070;2024-03-07T12:12:56;6.80;99.90
15199;DHT22;7700;48.654;9.070;2024-03-07T12:15:23;6.90;99.90
15199;DHT22;7700;48.654;9.070;2024-03-07T12:17:49;7.00;99.90
15199;DHT22;7700;48.654;9.070;2024-03-07T12:20:17;7.10;99.90
15199;DHT22;7700;48.654;9.070;2024-03-07T12:22:57;7.20;99.90
15199;DHT22;7700;48.654;9.070;2024-03-07T12:25:22;7.10;99.90
15199;DHT22;7700;48.654;9.070;2024-03-07T12:28:09;7.20;99.90
15199;DHT22;7700;48.654;9.070;2024-03-07T12:30:48;7.20;99.90
15199;DHT22;7700;48.654;9.070;2024-03-07T12:33:18;7.20;99.90
15199;DHT22;7700;48.654;9.070;2024-03-07T12:35:46;7.20;99.90
15199;DHT22;7700;48.654;9.070;2024-03-07T12:38:13;7.30;99.90
15199;DHT22;7700;48.654;9.070;2024-03-07T12:40:44;7.30;99.90
15199;DHT22;7700;48.654;9.070;2024-03-07T12:43:19;7.40;99.90
15199;DHT22;7700;48.654;9.070;2024-03-07T12:45:48;7.50;99.90
15199;DHT22;7700;48.654;9.070;2024-03-07T12:48:15;7.70;99.90
15199;DHT22;7700;48.654;9.070;2024-03-07T12:50:42;7.80;99.90
15199;DHT22;7700;48.654;9.070;2024-03-07T12:53:07;7.90;99.90
15199;DHT22;7700;48.654;9.070;2024-03-07T12:55:38;7.90;99.90
15199;DHT22;7700;48.654;9.070;2024-03-07T12:58:10;8.10;99.90
15199;DHT22;7700;48.654;9.070;2024-03-07T13:00:41;8.10;99.90
15199;DHT22;7700;48.654;9.070;2024-03-07T13:03:07;8.00;99.90
15199;DHT22;7700;48.654;9.070;2024-03-07T13:05:37;7.90;99.90
15199;DHT22;7700;48.654;9.070;2024-03-07T13:08:06;7.70;99.90
15199;DHT22;7700;48.654;9.070;2024-03-07T13:10:39;7.80;99.90
15199;DHT22;7700;48.654;9.070;2024-03-07T13:13:07;7.70;99.90
15199;DHT22;7700;48.654;9.070;2024-03-07T13:15:40;7.70;99.90
15199;DHT22;7700;48.654;9.070;2024-03-07T13:18:08;7.80;99.90
15199;DHT22;7700;48.654;9.070;2024-03-07T13:20:34;7.80;99.90
15199;DHT22;7700;48.654;9.070;2024-03-07T13:23:00;7.90;99.90
15199;DHT22;7700;48.654;9.070;2024-03-07T13:25:27;7.90;99.90
15199;DHT22;7700;48.654;9.070;2024-03-07T13:27:58;7.90;99.90
15199;DHT22;7700;48.654;9.070;2024-03-07T13:30:25;7.70;99.90
15199;DHT22;7700;48.654;9.070;2024-03-07T13:32:58;7.60;99.90
15199;DHT22;7700;48.654;9.070;2024-03-07T13:35:24;7.60;99.90
15199;DHT22;7700;48.654;9.070;2024-03-07T13:37:52;7.70;99.90
15199;DHT22;7700;48.654;9.070;2024-03-07T13:40:20;7.80;99.90
15199;DHT22;7700;48.654;9.070;2024-03-07T13:42:54;7.90;99.90
15199;DHT22;7700;48.654;9.070;2024-03-07T13:45:30;7.90;99.90
15199;DHT22;7700;48.654;9.070;2024-03-07T13:48:05;7.90;99.90
15199;DHT22;7700;48.654;9.070;2024-03-07T13:50:32;7.80;99.90
15199;DHT22;7700;48.654;9.070;2024-03-07T13:52:59;7.80;99.90
15199;DHT22;7700;48.654;9.070;2024-03-07T14:06:45;7.70;99.90
15199;DHT22;7700;48.654;9.070;2024-03-07T14:12:35;7.60;99.90
15199;DHT22;7700;48.654;9.070;2024-03-07T14:27:35;7.40;99.90
15199;DHT22;7700;48.654;9.070;2024-03-07T14:30:19;7.50;99.90
15199;DHT22;7700;48.654;9.070;2024-03-07T14:32:52;7.50;99.90
15199;DHT22;7700;48.654;9.070;2024-03-07T14:35:30;7.50;99.90
15199;DHT22;7700;48.654;9.070;2024-03-07T14:38:06;7.40;99.90
15199;DHT22;7700;48.654;9.070;2024-03-07T14:40:48;7.40;99.90
15199;DHT22;7700;48.654;9.070;2024-03-07T14:43:15;7.40;99.90
15199;DHT22;7700;48.654;9.070;2024-03-07T14:45:43;7.40;99.90
15199;DHT22;7700;48.654;9.070;2024-03-07T14:48:10;7.50;99.90
15199;DHT22;7700;48.654;9.070;2024-03-07T14:50:39;7.50;99.90
15199;DHT22;7700;48.654;9.070;2024-03-07T14:53:06;7.50;99.90
15199;DHT22;7700;48.654;9.070;2024-03-07T14:55:32;7.60;99.90
15199;DHT22;7700;48.654;9.070;2024-03-07T14:57:58;7.60;99.90
15199;DHT22;7700;48.654;9.070;2024-03-07T15:00:25;7.60;99.90
15199;DHT22;7700;48.654;9.070;2024-03-07T15:02:53;7.60;99.90
15199;DHT22;7700;48.654;9.070;2024-03-07T15:05:22;7.70;99.90
15199;DHT22;7700;48.654;9.070;2024-03-07T15:07:50;7.70;99.90
15199;DHT22;7700;48.654;9.070;2024-03-07T15:10:19;7.70;99.90
15199;DHT22;7700;48.654;9.070;2024-03-07T15:12:47;7.70;99.90
15199;DHT22;7700;48.654;9.070;2024-03-07T15:15:13;7.70;99.90
15199;DHT22;7700;48.654;9.070;2024-03-07T15:17:42;7.80;99.90
15199;DHT22;7700;48.654;9.070;2024-03-07T15:20:09;7.80;99.90
15199;DHT22;7700;48.654;9.070;2024-03-07T15:22:41;7.70;99.90
15199;DHT22;7700;48.654;9.070;2024-03-07T15:25:12;7.70;99.90
15199;DHT22;7700;48.654;9.070;2024-03-07T15:27:40;7.60;99.90
15199;DHT22;7700;48.654;9.070;2024-03-07T15:30:07;7.60;99.90
15199;DHT22;7700;48.654;9.070;2024-03-07T15:32:42;7.60;99.90
15199;DHT22;7700;48.654;9.070;2024-03-07T15:35:09;7.60;99.90
15199;DHT22;7700;48.654;9.070;2024-03-07T15:37:41;7.60;99.90
15199;DHT22;7700;48.654;9.070;2024-03-07T15:40:11;7.60;99.90
15199;DHT22;7700;48.654;9.070;2024-03-07T15:42:46;7.60;99.90
15199;DHT22;7700;48.654;9.070;2024-03-07T15:45:14;7.50;99.90
15199;DHT22;7700;48.654;9.070;2024-03-07T15:47:48;7.50;99.90
15199;DHT22;7700;48.654;9.070;2024-03-07T15:50:14;7.50;99.90
15199;DHT22;7700;48.654;9.070;2024-03-07T15:52:41;7.50;99.90
15199;DHT22;7700;48.654;9.070;2024-03-07T15:55:11;7.50;99.90
15199;DHT22;7700;48.654;9.070;2024-03-07T15:57:50;7.50;99.90
15199;DHT22;7700;48.654;9.070;2024-03-07T16:00:19;7.40;99.90
15199;DHT22;7700;48.654;9.070;2024-03-07T16:03:07;7.30;99.90
15199;DHT22;7700;48.654;9.070;2024-03-07T16:05:37;7.30;99.90
15199;DHT22;7700;48.654;9.070;2024-03-07T16:08:08;7.30;99.90
15199;DHT22;7700;48.654;9.070;2024-03-07T16:10:36;7.30;99.90
15199;DHT22;7700;48.654;9.070;2024-03-07T16:13:04;7.20;99.90
15199;DHT22;7700;48.654;9.070;2024-03-07T16:15:35;7.20;99.90
15199;DHT22;7700;48.654;9.070;2024-03-07T16:18:02;7.20;99.90
15199;DHT22;7700;48.654;9.070;2024-03-07T16:20:31;7.20;99.90
15199;DHT22;7700;48.654;9.070;2024-03-07T16:22:58;7.10;99.90
15199;DHT22;7700;48.654;9.070;2024-03-07T16:25:24;7.10;99.90
15199;DHT22;7700;48.654;9.070;2024-03-07T16:27:52;7.00;99.90
15199;DHT22;7700;48.654;9.070;2024-03-07T16:30:22;7.00;99.90
15199;DHT22;7700;48.654;9.070;2024-03-07T16:32:50;6.90;99.90
15199;DHT22;7700;48.654;9.070;2024-03-07T16:35:23;6.90;99.90
15199;DHT22;7700;48.654;9.070;2024-03-07T16:37:48;6.80;99.90
15199;DHT22;7700;48.654;9.070;2024-03-07T16:40:17;6.80;99.90
15199;DHT22;7700;48.654;9.070;2024-03-07T16:42:46;6.80;99.90